createdAt,value
2018-10-03T00:03:54.728Z,4.00
2018-10-03T00:08:57.237Z,14.80
2018-10-03T00:13:59.760Z,6.20
2018-10-03T00:19:02.312Z,6.40
2018-10-03T00:24:04.852Z,6.97
2018-10-03T00:29:07.381Z,3.83
2018-10-03T00:34:09.915Z,4.90
2018-10-03T00:39:12.435Z,2.80
2018-10-03T00:44:14.954Z,1.53
2018-10-03T00:49:17.488Z,4.23
2018-10-03T00:54:20.028Z,4.53
2018-10-03T00:59:22.559Z,3.70
2018-10-03T01:04:25.159Z,4.40
2018-10-03T01:09:27.698Z,4.77
2018-10-03T01:14:30.195Z,1.53
2018-10-03T01:19:32.705Z,2.70
2018-10-03T01:24:35.275Z,3.17
2018-10-03T01:29:37.824Z,1.30
2018-10-03T01:34:40.331Z,2.87
2018-10-03T01:39:43.417Z,2.33
2018-10-03T01:44:45.991Z,2.50
2018-10-03T01:49:48.528Z,2.97
2018-10-03T01:54:51.091Z,1.10
2018-10-03T01:59:54.280Z,4.23
2018-10-03T02:04:56.847Z,6.90
2018-10-03T02:09:59.499Z,1.10
2018-10-03T02:15:02.036Z,2.70
2018-10-03T02:20:05.334Z,3.73
2018-10-03T02:25:07.848Z,2.37
2018-10-03T02:30:10.391Z,2.97
2018-10-03T02:35:12.893Z,2.73
2018-10-03T02:40:15.479Z,5.03
2018-10-03T02:45:19.963Z,4.03
2018-10-03T02:50:22.484Z,3.10
2018-10-03T02:55:25.018Z,2.87
2018-10-03T03:00:27.563Z,4.83
2018-10-03T03:05:30.071Z,3.90
2018-10-03T03:10:32.659Z,2.63
2018-10-03T03:15:35.251Z,3.70
2018-10-03T03:20:37.783Z,3.07
2018-10-03T03:25:40.415Z,4.23
2018-10-03T03:30:42.956Z,2.50
2018-10-03T03:35:45.487Z,2.50
2018-10-03T03:40:48.028Z,2.27
2018-10-03T03:45:50.576Z,2.17
2018-10-03T03:50:53.103Z,4.07
2018-10-03T03:55:55.635Z,1.83
2018-10-03T04:00:58.160Z,3.73
2018-10-03T04:06:00.704Z,5.27
2018-10-03T04:11:03.236Z,1.90
2018-10-03T04:16:05.799Z,2.00
2018-10-03T04:21:08.355Z,1.97
2018-10-03T04:26:10.889Z,1.37
2018-10-03T04:31:13.409Z,1.00
2018-10-03T04:36:15.935Z,1.63
2018-10-03T04:41:18.458Z,1.57
2018-10-03T04:46:21.407Z,2.30
2018-10-03T04:51:23.915Z,2.10
2018-10-03T04:56:26.416Z,3.27
2018-10-03T05:01:28.938Z,2.20
2018-10-03T05:06:31.466Z,1.10
2018-10-03T05:11:33.987Z,2.03
2018-10-03T05:16:36.512Z,1.43
2018-10-03T05:21:39.048Z,1.50
2018-10-03T05:26:41.571Z,2.30
2018-10-03T05:31:44.096Z,2.53
2018-10-03T05:36:46.623Z,2.57
2018-10-03T05:41:49.126Z,1.37
2018-10-03T05:46:51.656Z,1.07
2018-10-03T05:51:54.180Z,3.10
2018-10-03T05:56:56.738Z,1.93
2018-10-03T06:01:59.286Z,1.50
2018-10-03T06:07:03.898Z,1.83
2018-10-03T06:12:06.598Z,1.17
2018-10-03T06:17:09.115Z,2.10
2018-10-03T06:22:11.726Z,3.60
2018-10-03T06:27:14.248Z,2.43
2018-10-03T06:32:16.781Z,1.77
2018-10-03T06:37:19.344Z,2.73
2018-10-03T06:42:21.867Z,3.50
2018-10-03T06:47:24.400Z,2.17
2018-10-03T06:52:26.911Z,2.30
2018-10-03T06:57:29.514Z,4.13
2018-10-03T07:02:33.188Z,1.83
2018-10-03T07:07:36.411Z,2.73
2018-10-03T07:12:40.407Z,2.40
2018-10-03T07:17:42.944Z,4.77
2018-10-03T07:22:45.455Z,1.77
2018-10-03T07:27:47.992Z,2.67
2018-10-03T07:32:50.520Z,3.70
2018-10-03T07:37:53.060Z,2.73
2018-10-03T07:42:55.589Z,3.10
2018-10-03T07:47:58.223Z,3.80
2018-10-03T07:53:00.749Z,2.90
2018-10-03T07:58:03.343Z,6.47
2018-10-03T08:03:10.655Z,5.67
2018-10-03T08:08:13.291Z,4.87
2018-10-03T08:13:15.868Z,2.67
2018-10-03T08:18:18.411Z,3.80
2018-10-03T08:23:21.609Z,2.70
2018-10-03T08:28:25.549Z,2.00
2018-10-03T08:33:28.283Z,4.00
2018-10-03T08:38:30.881Z,1.83
2018-10-03T08:43:33.473Z,2.90
2018-10-03T08:48:36.705Z,3.53
2018-10-03T08:53:39.296Z,2.87
2018-10-03T08:58:41.860Z,3.97
2018-10-03T09:03:44.420Z,3.43
2018-10-03T09:08:47.000Z,5.97
2018-10-03T09:13:49.591Z,4.87
2018-10-03T09:18:52.147Z,2.63
2018-10-03T09:23:55.375Z,3.73
2018-10-03T09:28:57.925Z,2.90
2018-10-03T09:34:00.510Z,2.37
2018-10-03T09:39:04.404Z,5.90
2018-10-03T09:44:07.528Z,2.63
2018-10-03T09:49:10.133Z,2.47
2018-10-03T09:54:13.315Z,3.97
2018-10-03T09:59:15.847Z,1.93
2018-10-03T10:04:18.387Z,4.03
2018-10-03T10:09:20.931Z,2.70
2018-10-03T10:14:23.483Z,3.77
2018-10-03T10:19:26.046Z,6.87
2018-10-03T10:24:29.196Z,1.70
2018-10-03T10:29:32.320Z,2.90
2018-10-03T10:34:34.880Z,4.47
2018-10-03T10:39:37.426Z,3.17
2018-10-03T10:44:40.015Z,1.60
2018-10-03T10:49:42.603Z,2.67
2018-10-03T10:54:45.516Z,2.00
2018-10-03T10:59:48.115Z,3.47
2018-10-03T11:04:50.563Z,3.27
2018-10-03T11:09:53.172Z,2.40
2018-10-03T11:14:55.798Z,3.23
2018-10-03T11:19:58.392Z,3.57
2018-10-03T11:25:01.078Z,4.83
2018-10-03T11:30:03.980Z,5.27
2018-10-03T11:35:06.563Z,2.13
2018-10-03T11:40:09.202Z,4.37
2018-10-03T11:45:11.769Z,3.90
2018-10-03T11:50:14.343Z,4.33
2018-10-03T11:55:16.896Z,5.70
2018-10-03T12:00:19.473Z,5.60
2018-10-03T12:05:21.994Z,3.93
2018-10-03T12:10:24.555Z,6.03
2018-10-03T12:15:27.096Z,5.33
2018-10-03T12:20:29.707Z,4.33
2018-10-03T12:25:33.356Z,5.97
2018-10-03T12:30:35.954Z,6.87
2018-10-03T12:35:38.503Z,3.30
2018-10-03T12:40:41.052Z,4.37
2018-10-03T12:45:43.620Z,7.70
2018-10-03T12:50:46.176Z,3.57
2018-10-03T12:55:48.711Z,5.50
2018-10-03T13:00:51.264Z,4.37
2018-10-03T13:05:53.804Z,3.10
2018-10-03T13:10:56.419Z,4.07
2018-10-03T13:15:58.963Z,2.87
2018-10-03T13:21:01.497Z,4.43
2018-10-03T13:26:04.089Z,4.30
2018-10-03T13:31:06.616Z,4.10
2018-10-03T13:36:09.183Z,6.10
2018-10-03T13:41:11.751Z,4.43
2018-10-03T13:46:14.297Z,3.43
2018-10-03T13:51:16.940Z,4.10
2018-10-03T13:56:20.443Z,4.97
2018-10-03T14:01:22.997Z,3.70
2018-10-03T14:06:25.591Z,4.33
2018-10-03T14:11:28.167Z,4.37
2018-10-03T14:16:30.766Z,6.10
2018-10-03T14:21:33.327Z,6.30
2018-10-03T14:26:35.887Z,5.30
2018-10-03T14:31:38.424Z,5.27
2018-10-03T14:36:40.970Z,7.67
2018-10-03T14:41:43.539Z,6.17
2018-10-03T14:46:46.145Z,6.13
2018-10-03T14:51:48.644Z,7.60
2018-10-03T14:56:52.027Z,5.03
2018-10-03T15:01:54.610Z,4.90
2018-10-03T15:06:57.169Z,6.57
2018-10-03T15:11:59.778Z,3.33
2018-10-03T15:17:02.336Z,2.97
2018-10-03T15:22:04.916Z,2.87
2018-10-03T15:27:07.541Z,2.83
2018-10-03T15:32:10.144Z,4.00
2018-10-03T15:37:12.722Z,3.73
2018-10-03T15:42:15.271Z,6.03
2018-10-03T15:47:17.836Z,3.93
2018-10-03T15:52:20.360Z,3.73
2018-10-03T15:57:22.911Z,3.57
2018-10-03T16:02:25.483Z,4.30
2018-10-03T16:07:28.031Z,5.70
2018-10-03T16:12:30.573Z,5.10
2018-10-03T16:17:33.142Z,7.67
2018-10-03T16:22:35.735Z,7.30
2018-10-03T16:27:38.302Z,8.90
2018-10-03T16:32:40.881Z,8.77
2018-10-03T16:37:44.199Z,8.03
2018-10-03T16:42:46.800Z,8.90
2018-10-03T16:47:49.417Z,9.87
2018-10-03T16:52:51.929Z,16.70
2018-10-03T16:57:54.447Z,22.50
2018-10-03T17:02:56.985Z,10.83
2018-10-03T17:07:59.803Z,6.13
2018-10-03T17:13:02.350Z,11.37
2018-10-03T17:18:04.906Z,25.70
2018-10-03T17:23:07.470Z,21.57
2018-10-03T17:28:10.034Z,13.03
2018-10-03T17:33:12.578Z,11.37
2018-10-03T17:38:15.212Z,14.63
2018-10-03T17:43:18.454Z,12.20
2018-10-03T17:48:21.030Z,13.30
2018-10-03T17:53:23.627Z,9.23
2018-10-03T17:58:26.237Z,9.97
2018-10-03T18:03:29.051Z,10.67
2018-10-03T18:08:31.720Z,12.83
2018-10-03T18:13:34.321Z,10.43
2018-10-03T18:18:36.859Z,8.43
2018-10-03T18:23:39.500Z,11.73
2018-10-03T18:28:42.118Z,12.10
2018-10-03T18:33:44.846Z,9.20
2018-10-03T18:38:47.977Z,9.10
2018-10-03T18:43:50.921Z,10.60
2018-10-03T18:48:53.821Z,9.93
2018-10-03T18:53:56.731Z,8.60
2018-10-03T18:58:59.781Z,8.23
2018-10-03T19:04:02.721Z,11.20
2018-10-03T19:09:07.773Z,7.53
2018-10-03T19:14:10.548Z,8.13
2018-10-03T19:19:13.438Z,8.63
2018-10-03T19:24:16.398Z,10.30
2018-10-03T19:29:19.230Z,9.17
2018-10-03T19:34:22.162Z,10.10
2018-10-03T19:39:24.994Z,10.83
2018-10-03T19:44:27.794Z,8.60
2018-10-03T19:49:30.397Z,9.03
2018-10-03T19:54:32.967Z,8.33
2018-10-03T19:59:35.566Z,10.07
2018-10-03T20:04:38.039Z,10.97
2018-10-03T20:09:40.744Z,12.33
2018-10-03T20:14:43.412Z,10.47
2018-10-03T20:19:46.004Z,11.57
2018-10-03T20:24:48.536Z,11.87
2018-10-03T20:29:51.095Z,10.47
2018-10-03T20:34:53.793Z,11.83
2018-10-03T20:39:56.344Z,13.50
2018-10-03T20:44:58.932Z,9.40
2018-10-03T20:50:01.513Z,11.07
2018-10-03T20:55:04.153Z,9.67
2018-10-03T21:00:06.720Z,10.07
2018-10-03T21:05:09.296Z,11.53
2018-10-03T21:10:11.840Z,10.33
2018-10-03T21:15:14.384Z,8.30
2018-10-03T21:20:16.939Z,8.03
2018-10-03T21:25:19.503Z,9.07
2018-10-03T21:30:22.047Z,9.07
2018-10-03T21:35:24.596Z,10.43
2018-10-03T21:40:27.138Z,10.23
2018-10-03T21:45:29.687Z,7.97
2018-10-03T21:50:32.241Z,7.87
2018-10-03T21:55:34.824Z,11.13
2018-10-03T22:00:43.079Z,7.27
2018-10-03T22:05:45.640Z,7.53
2018-10-03T22:10:48.265Z,7.07
2018-10-03T22:15:50.847Z,6.50
2018-10-03T22:20:53.461Z,9.97
2018-10-03T22:25:56.003Z,13.37
2018-10-03T22:30:58.558Z,10.83
2018-10-03T22:36:01.129Z,14.37
2018-10-03T22:41:03.666Z,11.87
2018-10-03T22:46:06.749Z,9.23
2018-10-03T22:51:09.291Z,11.37
2018-10-03T22:56:12.461Z,8.77
2018-10-03T23:01:15.143Z,10.13
2018-10-03T23:06:17.752Z,9.30
2018-10-03T23:11:20.251Z,10.17
2018-10-03T23:16:22.786Z,10.27
2018-10-03T23:21:25.330Z,10.70
2018-10-03T23:26:27.855Z,12.00
2018-10-03T23:31:30.379Z,11.07
2018-10-03T23:36:32.923Z,11.17
2018-10-03T23:41:35.504Z,8.50
2018-10-03T23:46:38.099Z,9.77
2018-10-03T23:51:40.595Z,8.00
2018-10-03T23:56:43.146Z,8.00
